sensor_id;sensor_type;location;lat;lon;timestamp;P1;durP1;ratioP1;P2;durP2;ratioP2
10142;SDS011;5112;54.088;13.446;2023-01-20T00:04:31;14.27;;;11.00;;
10142;SDS011;5112;54.088;13.446;2023-01-20T00:14:34;17.10;;;11.43;;
10142;SDS011;5112;54.088;13.446;2023-01-20T00:24:36;16.40;;;10.90;;
10142;SDS011;5112;54.088;13.446;2023-01-20T00:34:39;17.30;;;11.47;;
10142;SDS011;5112;54.088;13.446;2023-01-20T00:44:40;18.27;;;10.67;;
10142;SDS011;5112;54.088;13.446;2023-01-20T00:54:43;16.13;;;11.17;;
10142;SDS011;5112;54.088;13.446;2023-01-20T01:04:47;17.40;;;11.30;;
10142;SDS011;5112;54.088;13.446;2023-01-20T01:14:51;22.67;;;12.63;;
10142;SDS011;5112;54.088;13.446;2023-01-20T01:24:53;16.67;;;10.97;;
10142;SDS011;5112;54.088;13.446;2023-01-20T01:34:56;19.40;;;11.27;;
10142;SDS011;5112;54.088;13.446;2023-01-20T01:45:16;18.23;;;12.37;;
10142;SDS011;5112;54.088;13.446;2023-01-20T01:55:24;17.40;;;11.37;;
10142;SDS011;5112;54.088;13.446;2023-01-20T02:05:29;19.50;;;12.00;;
10142;SDS011;5112;54.088;13.446;2023-01-20T02:15:34;18.93;;;12.00;;
10142;SDS011;5112;54.088;13.446;2023-01-20T02:36:25;19.87;;;11.67;;
10142;SDS011;5112;54.088;13.446;2023-01-20T02:46:32;20.37;;;12.53;;
10142;SDS011;5112;54.088;13.446;2023-01-20T02:56:39;19.33;;;12.07;;
10142;SDS011;5112;54.088;13.446;2023-01-20T03:06:42;19.33;;;11.43;;
10142;SDS011;5112;54.088;13.446;2023-01-20T03:16:51;18.23;;;10.97;;
10142;SDS011;5112;54.088;13.446;2023-01-20T03:26:53;17.97;;;12.10;;
10142;SDS011;5112;54.088;13.446;2023-01-20T03:36:56;18.93;;;12.23;;
10142;SDS011;5112;54.088;13.446;2023-01-20T03:47:01;21.97;;;12.60;;
10142;SDS011;5112;54.088;13.446;2023-01-20T03:57:10;21.23;;;11.93;;
10142;SDS011;5112;54.088;13.446;2023-01-20T04:07:16;20.27;;;12.47;;
10142;SDS011;5112;54.088;13.446;2023-01-20T04:17:21;20.00;;;11.63;;
10142;SDS011;5112;54.088;13.446;2023-01-20T04:27:27;23.13;;;12.23;;
10142;SDS011;5112;54.088;13.446;2023-01-20T04:37:30;20.83;;;11.73;;
10142;SDS011;5112;54.088;13.446;2023-01-20T04:47:32;23.47;;;12.87;;
10142;SDS011;5112;54.088;13.446;2023-01-20T04:57:35;24.50;;;12.53;;
10142;SDS011;5112;54.088;13.446;2023-01-20T05:07:37;24.73;;;13.07;;
10142;SDS011;5112;54.088;13.446;2023-01-20T05:17:40;23.20;;;12.83;;
10142;SDS011;5112;54.088;13.446;2023-01-20T05:27:41;20.83;;;12.80;;
10142;SDS011;5112;54.088;13.446;2023-01-20T05:37:45;21.33;;;12.83;;
10142;SDS011;5112;54.088;13.446;2023-01-20T05:47:47;23.60;;;13.90;;
10142;SDS011;5112;54.088;13.446;2023-01-20T05:57:56;20.93;;;13.00;;
10142;SDS011;5112;54.088;13.446;2023-01-20T06:08:01;23.73;;;14.57;;
10142;SDS011;5112;54.088;13.446;2023-01-20T06:18:07;22.30;;;13.47;;
10142;SDS011;5112;54.088;13.446;2023-01-20T06:28:11;23.17;;;13.83;;
10142;SDS011;5112;54.088;13.446;2023-01-20T06:38:14;23.43;;;14.20;;
10142;SDS011;5112;54.088;13.446;2023-01-20T06:48:16;22.60;;;13.40;;
10142;SDS011;5112;54.088;13.446;2023-01-20T06:58:19;19.70;;;12.07;;
10142;SDS011;5112;54.088;13.446;2023-01-20T07:08:21;21.13;;;12.77;;
10142;SDS011;5112;54.088;13.446;2023-01-20T07:18:24;21.23;;;13.23;;
10142;SDS011;5112;54.088;13.446;2023-01-20T07:28:26;22.07;;;12.67;;
10142;SDS011;5112;54.088;13.446;2023-01-20T07:38:29;22.57;;;13.23;;
10142;SDS011;5112;54.088;13.446;2023-01-20T07:48:31;23.17;;;13.50;;
10142;SDS011;5112;54.088;13.446;2023-01-20T07:58:35;20.10;;;13.13;;
10142;SDS011;5112;54.088;13.446;2023-01-20T08:08:37;19.77;;;12.90;;
10142;SDS011;5112;54.088;13.446;2023-01-20T08:18:41;22.83;;;13.37;;
10142;SDS011;5112;54.088;13.446;2023-01-20T08:28:43;21.93;;;12.37;;
10142;SDS011;5112;54.088;13.446;2023-01-20T08:38:46;18.07;;;12.07;;
10142;SDS011;5112;54.088;13.446;2023-01-20T08:48:48;21.50;;;12.40;;
10142;SDS011;5112;54.088;13.446;2023-01-20T08:58:52;20.53;;;12.23;;
10142;SDS011;5112;54.088;13.446;2023-01-20T09:08:54;17.87;;;11.67;;
10142;SDS011;5112;54.088;13.446;2023-01-20T09:18:57;18.40;;;12.07;;
10142;SDS011;5112;54.088;13.446;2023-01-20T09:28:59;19.40;;;12.63;;
10142;SDS011;5112;54.088;13.446;2023-01-20T09:39:09;17.00;;;11.00;;
10142;SDS011;5112;54.088;13.446;2023-01-20T09:49:32;21.10;;;12.63;;
10142;SDS011;5112;54.088;13.446;2023-01-20T10:00:00;21.57;;;13.10;;
10142;SDS011;5112;54.088;13.446;2023-01-20T10:10:09;22.00;;;12.87;;
10142;SDS011;5112;54.088;13.446;2023-01-20T10:20:18;20.30;;;12.80;;
10142;SDS011;5112;54.088;13.446;2023-01-20T10:30:29;16.93;;;11.80;;
10142;SDS011;5112;54.088;13.446;2023-01-20T10:40:35;16.50;;;10.53;;
10142;SDS011;5112;54.088;13.446;2023-01-20T10:50:46;18.47;;;11.30;;
10142;SDS011;5112;54.088;13.446;2023-01-20T11:00:58;16.07;;;10.77;;
10142;SDS011;5112;54.088;13.446;2023-01-20T11:11:08;15.80;;;10.13;;
10142;SDS011;5112;54.088;13.446;2023-01-20T11:21:13;18.03;;;10.77;;
10142;SDS011;5112;54.088;13.446;2023-01-20T11:31:15;17.10;;;10.57;;
10142;SDS011;5112;54.088;13.446;2023-01-20T11:41:19;15.03;;;8.97;;
10142;SDS011;5112;54.088;13.446;2023-01-20T11:51:22;11.93;;;8.40;;
10142;SDS011;5112;54.088;13.446;2023-01-20T12:01:27;14.33;;;8.47;;
10142;SDS011;5112;54.088;13.446;2023-01-20T12:11:32;14.57;;;9.57;;
10142;SDS011;5112;54.088;13.446;2023-01-20T12:21:38;15.03;;;8.63;;
10142;SDS011;5112;54.088;13.446;2023-01-20T12:31:43;11.37;;;7.60;;
10142;SDS011;5112;54.088;13.446;2023-01-20T12:41:57;14.83;;;9.70;;
10142;SDS011;5112;54.088;13.446;2023-01-20T12:52:21;14.40;;;9.23;;
10142;SDS011;5112;54.088;13.446;2023-01-20T13:02:47;19.50;;;10.77;;
10142;SDS011;5112;54.088;13.446;2023-01-20T13:13:07;17.93;;;11.30;;
10142;SDS011;5112;54.088;13.446;2023-01-20T13:23:21;16.40;;;10.67;;
10142;SDS011;5112;54.088;13.446;2023-01-20T13:33:30;16.23;;;10.10;;
10142;SDS011;5112;54.088;13.446;2023-01-20T13:43:36;17.13;;;10.57;;
10142;SDS011;5112;54.088;13.446;2023-01-20T13:53:50;16.23;;;9.73;;
10142;SDS011;5112;54.088;13.446;2023-01-20T14:04:02;19.17;;;10.93;;
10142;SDS011;5112;54.088;13.446;2023-01-20T14:14:05;16.67;;;9.70;;
10142;SDS011;5112;54.088;13.446;2023-01-20T14:24:26;18.80;;;10.10;;
10142;SDS011;5112;54.088;13.446;2023-01-20T14:34:29;17.70;;;10.80;;
10142;SDS011;5112;54.088;13.446;2023-01-20T14:44:33;15.50;;;9.93;;
10142;SDS011;5112;54.088;13.446;2023-01-20T14:54:37;16.57;;;10.00;;
10142;SDS011;5112;54.088;13.446;2023-01-20T15:04:43;17.40;;;10.57;;
10142;SDS011;5112;54.088;13.446;2023-01-20T15:14:54;17.33;;;10.87;;
10142;SDS011;5112;54.088;13.446;2023-01-20T15:25:03;17.17;;;10.00;;
10142;SDS011;5112;54.088;13.446;2023-01-20T15:35:12;18.73;;;12.27;;
10142;SDS011;5112;54.088;13.446;2023-01-20T15:45:16;21.50;;;11.30;;
10142;SDS011;5112;54.088;13.446;2023-01-20T15:55:19;17.37;;;9.93;;
10142;SDS011;5112;54.088;13.446;2023-01-20T16:05:22;16.63;;;11.10;;
10142;SDS011;5112;54.088;13.446;2023-01-20T16:15:24;13.83;;;9.70;;
10142;SDS011;5112;54.088;13.446;2023-01-20T16:25:27;14.70;;;9.03;;
10142;SDS011;5112;54.088;13.446;2023-01-20T16:35:29;20.80;;;12.27;;
10142;SDS011;5112;54.088;13.446;2023-01-20T16:45:32;16.17;;;10.37;;
10142;SDS011;5112;54.088;13.446;2023-01-20T16:55:34;18.13;;;12.77;;
10142;SDS011;5112;54.088;13.446;2023-01-20T17:05:37;15.73;;;10.87;;
10142;SDS011;5112;54.088;13.446;2023-01-20T17:15:39;18.37;;;10.57;;
10142;SDS011;5112;54.088;13.446;2023-01-20T17:25:43;17.23;;;11.00;;
10142;SDS011;5112;54.088;13.446;2023-01-20T17:35:53;17.53;;;10.80;;
10142;SDS011;5112;54.088;13.446;2023-01-20T17:45:56;17.27;;;10.60;;
10142;SDS011;5112;54.088;13.446;2023-01-20T17:55:58;18.47;;;11.37;;
10142;SDS011;5112;54.088;13.446;2023-01-20T18:06:01;15.03;;;9.60;;
10142;SDS011;5112;54.088;13.446;2023-01-20T18:16:03;16.33;;;10.13;;
10142;SDS011;5112;54.088;13.446;2023-01-20T18:26:07;21.43;;;14.93;;
10142;SDS011;5112;54.088;13.446;2023-01-20T18:36:11;20.27;;;13.47;;
10142;SDS011;5112;54.088;13.446;2023-01-20T18:46:15;20.30;;;14.17;;
10142;SDS011;5112;54.088;13.446;2023-01-20T18:56:17;16.67;;;11.10;;
10142;SDS011;5112;54.088;13.446;2023-01-20T19:06:21;17.83;;;10.33;;
10142;SDS011;5112;54.088;13.446;2023-01-20T19:16:25;14.53;;;10.60;;
10142;SDS011;5112;54.088;13.446;2023-01-20T19:26:33;18.73;;;13.95;;
10142;SDS011;5112;54.088;13.446;2023-01-20T19:36:36;16.30;;;11.90;;
10142;SDS011;5112;54.088;13.446;2023-01-20T19:46:39;15.93;;;11.17;;
10142;SDS011;5112;54.088;13.446;2023-01-20T19:56:41;12.13;;;9.23;;
10142;SDS011;5112;54.088;13.446;2023-01-20T20:06:44;11.77;;;9.17;;
10142;SDS011;5112;54.088;13.446;2023-01-20T20:16:47;12.37;;;9.00;;
10142;SDS011;5112;54.088;13.446;2023-01-20T20:26:51;18.87;;;13.33;;
10142;SDS011;5112;54.088;13.446;2023-01-20T20:36:53;16.47;;;10.47;;
10142;SDS011;5112;54.088;13.446;2023-01-20T20:46:56;12.97;;;9.50;;
10142;SDS011;5112;54.088;13.446;2023-01-20T20:56:57;15.23;;;9.60;;
10142;SDS011;5112;54.088;13.446;2023-01-20T21:07:00;14.57;;;9.17;;
10142;SDS011;5112;54.088;13.446;2023-01-20T21:17:02;12.77;;;9.80;;
10142;SDS011;5112;54.088;13.446;2023-01-20T21:27:05;12.43;;;8.60;;
10142;SDS011;5112;54.088;13.446;2023-01-20T21:37:07;15.70;;;11.60;;
10142;SDS011;5112;54.088;13.446;2023-01-20T21:47:10;13.47;;;9.00;;
10142;SDS011;5112;54.088;13.446;2023-01-20T21:57:12;12.80;;;8.23;;
10142;SDS011;5112;54.088;13.446;2023-01-20T22:07:15;13.23;;;9.20;;
10142;SDS011;5112;54.088;13.446;2023-01-20T22:17:17;12.40;;;9.00;;
10142;SDS011;5112;54.088;13.446;2023-01-20T22:27:20;13.33;;;8.93;;
10142;SDS011;5112;54.088;13.446;2023-01-20T22:37:21;14.47;;;9.20;;
10142;SDS011;5112;54.088;13.446;2023-01-20T22:47:25;13.50;;;8.40;;
10142;SDS011;5112;54.088;13.446;2023-01-20T22:57:28;11.93;;;8.87;;
10142;SDS011;5112;54.088;13.446;2023-01-20T23:07:31;13.67;;;8.73;;
10142;SDS011;5112;54.088;13.446;2023-01-20T23:17:36;13.67;;;8.87;;
10142;SDS011;5112;54.088;13.446;2023-01-20T23:27:39;17.70;;;10.43;;
10142;SDS011;5112;54.088;13.446;2023-01-20T23:37:41;14.27;;;9.70;;
10142;SDS011;5112;54.088;13.446;2023-01-20T23:47:44;16.53;;;10.73;;
10142;SDS011;5112;54.088;13.446;2023-01-20T23:57:45;17.03;;;11.30;;
